sensor_id;sensor_type;location;lat;lon;timestamp;P1;durP1;ratioP1;P2;durP2;ratioP2
37051;SDS011;22964;52.272;13.356;2024-03-08T00:00:40;18.80;;;9.98;;
37051;SDS011;22964;52.272;13.356;2024-03-08T00:03:08;19.33;;;9.95;;
37051;SDS011;22964;52.272;13.356;2024-03-08T00:05:35;21.27;;;10.05;;
37051;SDS011;22964;52.272;13.356;2024-03-08T00:08:04;19.90;;;10.15;;
37051;SDS011;22964;52.272;13.356;2024-03-08T00:10:31;21.13;;;10.35;;
37051;SDS011;22964;52.272;13.356;2024-03-08T00:12:57;18.90;;;9.93;;
37051;SDS011;22964;52.272;13.356;2024-03-08T00:15:22;20.10;;;10.40;;
37051;SDS011;22964;52.272;13.356;2024-03-08T00:17:48;21.38;;;10.50;;
37051;SDS011;22964;52.272;13.356;2024-03-08T00:20:14;19.08;;;10.00;;
37051;SDS011;22964;52.272;13.356;2024-03-08T00:22:42;21.17;;;10.90;;
37051;SDS011;22964;52.272;13.356;2024-03-08T00:25:08;21.13;;;9.63;;
37051;SDS011;22964;52.272;13.356;2024-03-08T00:27:34;21.77;;;10.73;;
37051;SDS011;22964;52.272;13.356;2024-03-08T00:30:01;20.75;;;10.20;;
37051;SDS011;22964;52.272;13.356;2024-03-08T00:32:27;22.20;;;10.57;;
37051;SDS011;22964;52.272;13.356;2024-03-08T00:34:53;19.13;;;10.20;;
37051;SDS011;22964;52.272;13.356;2024-03-08T00:37:22;19.73;;;10.57;;
37051;SDS011;22964;52.272;13.356;2024-03-08T00:39:51;21.65;;;10.55;;
37051;SDS011;22964;52.272;13.356;2024-03-08T00:42:17;19.92;;;10.45;;
37051;SDS011;22964;52.272;13.356;2024-03-08T00:44:43;19.95;;;9.85;;
37051;SDS011;22964;52.272;13.356;2024-03-08T00:47:09;20.17;;;10.48;;
37051;SDS011;22964;52.272;13.356;2024-03-08T00:49:35;20.70;;;10.13;;
37051;SDS011;22964;52.272;13.356;2024-03-08T00:52:04;19.00;;;9.65;;
37051;SDS011;22964;52.272;13.356;2024-03-08T00:54:34;20.80;;;10.48;;
37051;SDS011;22964;52.272;13.356;2024-03-08T00:57:01;21.58;;;10.38;;
37051;SDS011;22964;52.272;13.356;2024-03-08T00:59:30;21.60;;;11.15;;
37051;SDS011;22964;52.272;13.356;2024-03-08T01:01:59;22.92;;;10.77;;
37051;SDS011;22964;52.272;13.356;2024-03-08T01:04:25;22.60;;;11.32;;
37051;SDS011;22964;52.272;13.356;2024-03-08T01:06:54;21.00;;;10.35;;
37051;SDS011;22964;52.272;13.356;2024-03-08T01:09:22;18.67;;;10.20;;
37051;SDS011;22964;52.272;13.356;2024-03-08T01:11:48;20.33;;;11.02;;
37051;SDS011;22964;52.272;13.356;2024-03-08T01:14:14;26.08;;;11.63;;
37051;SDS011;22964;52.272;13.356;2024-03-08T01:16:40;24.27;;;11.13;;
37051;SDS011;22964;52.272;13.356;2024-03-08T01:19:06;23.48;;;11.07;;
37051;SDS011;22964;52.272;13.356;2024-03-08T01:21:32;25.65;;;11.82;;
37051;SDS011;22964;52.272;13.356;2024-03-08T01:23:58;23.55;;;11.43;;
37051;SDS011;22964;52.272;13.356;2024-03-08T01:26:24;21.33;;;10.70;;
37051;SDS011;22964;52.272;13.356;2024-03-08T01:28:49;20.95;;;11.05;;
37051;SDS011;22964;52.272;13.356;2024-03-08T01:31:15;24.15;;;11.02;;
37051;SDS011;22964;52.272;13.356;2024-03-08T01:33:41;21.40;;;10.63;;
37051;SDS011;22964;52.272;13.356;2024-03-08T01:36:07;21.70;;;11.13;;
37051;SDS011;22964;52.272;13.356;2024-03-08T01:38:33;22.75;;;11.32;;
37051;SDS011;22964;52.272;13.356;2024-03-08T01:40:59;19.67;;;10.65;;
37051;SDS011;22964;52.272;13.356;2024-03-08T01:43:25;22.30;;;11.15;;
37051;SDS011;22964;52.272;13.356;2024-03-08T01:45:53;23.23;;;11.90;;
37051;SDS011;22964;52.272;13.356;2024-03-08T01:48:20;23.75;;;10.65;;
37051;SDS011;22964;52.272;13.356;2024-03-08T01:50:49;22.80;;;11.63;;
37051;SDS011;22964;52.272;13.356;2024-03-08T01:53:17;22.13;;;11.50;;
37051;SDS011;22964;52.272;13.356;2024-03-08T01:55:47;21.27;;;10.80;;
37051;SDS011;22964;52.272;13.356;2024-03-08T01:58:13;23.00;;;11.32;;
37051;SDS011;22964;52.272;13.356;2024-03-08T02:00:45;25.55;;;11.40;;
37051;SDS011;22964;52.272;13.356;2024-03-08T02:03:14;23.42;;;11.65;;
37051;SDS011;22964;52.272;13.356;2024-03-08T02:05:40;21.85;;;11.07;;
37051;SDS011;22964;52.272;13.356;2024-03-08T02:08:07;22.35;;;11.32;;
37051;SDS011;22964;52.272;13.356;2024-03-08T02:10:38;25.10;;;12.23;;
37051;SDS011;22964;52.272;13.356;2024-03-08T02:13:04;22.20;;;11.80;;
37051;SDS011;22964;52.272;13.356;2024-03-08T02:18:18;21.42;;;11.10;;
37051;SDS011;22964;52.272;13.356;2024-03-08T02:20:48;28.48;;;12.20;;
37051;SDS011;22964;52.272;13.356;2024-03-08T02:23:15;25.45;;;12.27;;
37051;SDS011;22964;52.272;13.356;2024-03-08T02:25:42;23.25;;;11.57;;
37051;SDS011;22964;52.272;13.356;2024-03-08T02:28:10;21.88;;;10.80;;
37051;SDS011;22964;52.272;13.356;2024-03-08T02:30:37;25.15;;;12.23;;
37051;SDS011;22964;52.272;13.356;2024-03-08T02:33:03;26.40;;;12.20;;
37051;SDS011;22964;52.272;13.356;2024-03-08T02:35:34;22.52;;;11.65;;
37051;SDS011;22964;52.272;13.356;2024-03-08T02:38:01;24.85;;;10.95;;
37051;SDS011;22964;52.272;13.356;2024-03-08T02:40:29;22.35;;;11.55;;
37051;SDS011;22964;52.272;13.356;2024-03-08T02:42:55;23.25;;;11.98;;
37051;SDS011;22964;52.272;13.356;2024-03-08T02:45:20;23.30;;;11.05;;
37051;SDS011;22964;52.272;13.356;2024-03-08T02:47:46;25.52;;;11.88;;
37051;SDS011;22964;52.272;13.356;2024-03-08T02:50:14;26.27;;;11.77;;
37051;SDS011;22964;52.272;13.356;2024-03-08T02:52:41;23.65;;;11.50;;
37051;SDS011;22964;52.272;13.356;2024-03-08T02:55:07;24.40;;;11.68;;
37051;SDS011;22964;52.272;13.356;2024-03-08T02:57:35;24.58;;;11.70;;
37051;SDS011;22964;52.272;13.356;2024-03-08T03:00:02;22.85;;;10.88;;
37051;SDS011;22964;52.272;13.356;2024-03-08T03:02:29;24.10;;;11.73;;
37051;SDS011;22964;52.272;13.356;2024-03-08T03:04:54;21.83;;;11.30;;
37051;SDS011;22964;52.272;13.356;2024-03-08T03:07:21;26.25;;;12.13;;
37051;SDS011;22964;52.272;13.356;2024-03-08T03:09:47;24.80;;;12.27;;
37051;SDS011;22964;52.272;13.356;2024-03-08T03:12:12;25.02;;;11.88;;
37051;SDS011;22964;52.272;13.356;2024-03-08T03:14:39;22.38;;;11.70;;
37051;SDS011;22964;52.272;13.356;2024-03-08T03:17:05;26.95;;;11.95;;
37051;SDS011;22964;52.272;13.356;2024-03-08T03:19:31;24.02;;;11.52;;
37051;SDS011;22964;52.272;13.356;2024-03-08T03:21:56;25.38;;;11.73;;
37051;SDS011;22964;52.272;13.356;2024-03-08T03:24:22;23.88;;;11.43;;
37051;SDS011;22964;52.272;13.356;2024-03-08T03:26:48;23.55;;;11.70;;
37051;SDS011;22964;52.272;13.356;2024-03-08T03:29:14;25.80;;;11.93;;
37051;SDS011;22964;52.272;13.356;2024-03-08T03:31:42;21.63;;;11.02;;
37051;SDS011;22964;52.272;13.356;2024-03-08T03:34:10;26.95;;;11.85;;
37051;SDS011;22964;52.272;13.356;2024-03-08T03:36:37;26.05;;;12.13;;
37051;SDS011;22964;52.272;13.356;2024-03-08T03:39:07;23.83;;;11.43;;
37051;SDS011;22964;52.272;13.356;2024-03-08T03:41:38;25.52;;;12.18;;
37051;SDS011;22964;52.272;13.356;2024-03-08T03:44:04;24.48;;;11.38;;
37051;SDS011;22964;52.272;13.356;2024-03-08T03:46:33;22.50;;;11.52;;
37051;SDS011;22964;52.272;13.356;2024-03-08T03:48:59;26.15;;;12.27;;
37051;SDS011;22964;52.272;13.356;2024-03-08T03:51:25;26.67;;;11.52;;
37051;SDS011;22964;52.272;13.356;2024-03-08T03:53:51;25.13;;;11.73;;
37051;SDS011;22964;52.272;13.356;2024-03-08T03:56:18;28.27;;;11.10;;
37051;SDS011;22964;52.272;13.356;2024-03-08T03:58:44;28.88;;;12.38;;
37051;SDS011;22964;52.272;13.356;2024-03-08T04:01:10;24.08;;;11.95;;
37051;SDS011;22964;52.272;13.356;2024-03-08T04:03:35;25.23;;;11.55;;
37051;SDS011;22964;52.272;13.356;2024-03-08T04:06:03;23.73;;;12.30;;
37051;SDS011;22964;52.272;13.356;2024-03-08T04:08:29;26.85;;;11.95;;
37051;SDS011;22964;52.272;13.356;2024-03-08T04:10:56;26.98;;;12.07;;
37051;SDS011;22964;52.272;13.356;2024-03-08T04:13:23;25.35;;;12.18;;
37051;SDS011;22964;52.272;13.356;2024-03-08T04:15:49;25.85;;;12.48;;
37051;SDS011;22964;52.272;13.356;2024-03-08T04:18:14;26.77;;;11.80;;
37051;SDS011;22964;52.272;13.356;2024-03-08T04:20:40;29.08;;;12.70;;
37051;SDS011;22964;52.272;13.356;2024-03-08T04:23:06;24.63;;;12.20;;
37051;SDS011;22964;52.272;13.356;2024-03-08T04:25:32;24.42;;;12.35;;
37051;SDS011;22964;52.272;13.356;2024-03-08T04:27:58;23.02;;;11.75;;
37051;SDS011;22964;52.272;13.356;2024-03-08T04:30:24;26.88;;;12.30;;
37051;SDS011;22964;52.272;13.356;2024-03-08T04:32:49;26.55;;;12.25;;
37051;SDS011;22964;52.272;13.356;2024-03-08T04:35:15;26.95;;;12.43;;
37051;SDS011;22964;52.272;13.356;2024-03-08T04:37:41;25.90;;;11.70;;
37051;SDS011;22964;52.272;13.356;2024-03-08T04:40:07;23.65;;;11.15;;
37051;SDS011;22964;52.272;13.356;2024-03-08T04:42:33;26.05;;;12.18;;
37051;SDS011;22964;52.272;13.356;2024-03-08T04:44:59;25.20;;;11.88;;
37051;SDS011;22964;52.272;13.356;2024-03-08T04:47:25;25.75;;;12.93;;
37051;SDS011;22964;52.272;13.356;2024-03-08T04:49:51;24.88;;;11.70;;
37051;SDS011;22964;52.272;13.356;2024-03-08T04:52:16;25.50;;;11.90;;
37051;SDS011;22964;52.272;13.356;2024-03-08T04:54:42;25.42;;;12.40;;
37051;SDS011;22964;52.272;13.356;2024-03-08T04:57:09;25.65;;;12.07;;
37051;SDS011;22964;52.272;13.356;2024-03-08T04:59:36;23.88;;;11.60;;
37051;SDS011;22964;52.272;13.356;2024-03-08T05:02:02;25.27;;;12.43;;
37051;SDS011;22964;52.272;13.356;2024-03-08T05:04:28;24.83;;;12.55;;
37051;SDS011;22964;52.272;13.356;2024-03-08T05:06:54;31.38;;;12.25;;
37051;SDS011;22964;52.272;13.356;2024-03-08T05:09:20;26.95;;;12.00;;
37051;SDS011;22964;52.272;13.356;2024-03-08T05:11:46;26.88;;;12.05;;
37051;SDS011;22964;52.272;13.356;2024-03-08T05:14:12;28.83;;;12.57;;
37051;SDS011;22964;52.272;13.356;2024-03-08T05:16:44;30.88;;;13.35;;
37051;SDS011;22964;52.272;13.356;2024-03-08T05:19:14;27.27;;;13.07;;
37051;SDS011;22964;52.272;13.356;2024-03-08T05:21:44;27.20;;;12.90;;
37051;SDS011;22964;52.272;13.356;2024-03-08T05:24:13;28.30;;;12.88;;
37051;SDS011;22964;52.272;13.356;2024-03-08T05:26:43;28.05;;;12.70;;
37051;SDS011;22964;52.272;13.356;2024-03-08T05:29:09;25.15;;;12.55;;
37051;SDS011;22964;52.272;13.356;2024-03-08T05:31:37;29.00;;;13.32;;
37051;SDS011;22964;52.272;13.356;2024-03-08T05:34:10;27.80;;;13.25;;
37051;SDS011;22964;52.272;13.356;2024-03-08T05:36:39;26.75;;;12.45;;
37051;SDS011;22964;52.272;13.356;2024-03-08T05:39:19;25.35;;;12.13;;
37051;SDS011;22964;52.272;13.356;2024-03-08T05:41:48;27.20;;;13.30;;
37051;SDS011;22964;52.272;13.356;2024-03-08T05:44:14;26.25;;;12.75;;
37051;SDS011;22964;52.272;13.356;2024-03-08T05:46:42;26.65;;;12.38;;
37051;SDS011;22964;52.272;13.356;2024-03-08T05:49:08;27.55;;;12.60;;
37051;SDS011;22964;52.272;13.356;2024-03-08T05:51:35;26.58;;;12.98;;
37051;SDS011;22964;52.272;13.356;2024-03-08T05:54:03;28.83;;;13.10;;
37051;SDS011;22964;52.272;13.356;2024-03-08T05:56:32;25.55;;;12.52;;
37051;SDS011;22964;52.272;13.356;2024-03-08T05:58:58;25.70;;;12.73;;
37051;SDS011;22964;52.272;13.356;2024-03-08T06:01:25;25.70;;;12.82;;
37051;SDS011;22964;52.272;13.356;2024-03-08T06:03:52;28.77;;;13.30;;
37051;SDS011;22964;52.272;13.356;2024-03-08T06:06:20;28.50;;;12.77;;
37051;SDS011;22964;52.272;13.356;2024-03-08T06:08:47;38.50;;;16.60;;
37051;SDS011;22964;52.272;13.356;2024-03-08T06:11:14;30.70;;;14.77;;
37051;SDS011;22964;52.272;13.356;2024-03-08T06:13:40;29.25;;;13.07;;
37051;SDS011;22964;52.272;13.356;2024-03-08T06:16:06;27.45;;;12.73;;
37051;SDS011;22964;52.272;13.356;2024-03-08T06:18:36;28.20;;;13.32;;
37051;SDS011;22964;52.272;13.356;2024-03-08T06:21:03;30.08;;;13.93;;
37051;SDS011;22964;52.272;13.356;2024-03-08T06:23:32;28.92;;;13.75;;
37051;SDS011;22964;52.272;13.356;2024-03-08T06:25:58;26.85;;;13.25;;
37051;SDS011;22964;52.272;13.356;2024-03-08T06:28:24;28.92;;;13.90;;
37051;SDS011;22964;52.272;13.356;2024-03-08T06:30:51;30.33;;;14.23;;
37051;SDS011;22964;52.272;13.356;2024-03-08T06:33:17;28.50;;;14.07;;
37051;SDS011;22964;52.272;13.356;2024-03-08T06:35:43;25.05;;;12.13;;
37051;SDS011;22964;52.272;13.356;2024-03-08T06:38:09;28.98;;;13.75;;
37051;SDS011;22964;52.272;13.356;2024-03-08T06:40:36;28.80;;;13.40;;
37051;SDS011;22964;52.272;13.356;2024-03-08T06:43:02;31.90;;;14.63;;
37051;SDS011;22964;52.272;13.356;2024-03-08T06:45:31;27.77;;;13.68;;
37051;SDS011;22964;52.272;13.356;2024-03-08T06:47:57;29.20;;;14.23;;
37051;SDS011;22964;52.272;13.356;2024-03-08T06:50:23;29.42;;;13.77;;
37051;SDS011;22964;52.272;13.356;2024-03-08T06:52:48;30.98;;;14.55;;
37051;SDS011;22964;52.272;13.356;2024-03-08T06:55:19;29.00;;;13.85;;
37051;SDS011;22964;52.272;13.356;2024-03-08T06:57:45;27.23;;;13.68;;
37051;SDS011;22964;52.272;13.356;2024-03-08T07:00:11;29.60;;;14.45;;
37051;SDS011;22964;52.272;13.356;2024-03-08T07:02:42;30.00;;;13.27;;
37051;SDS011;22964;52.272;13.356;2024-03-08T07:05:08;29.63;;;14.05;;
37051;SDS011;22964;52.272;13.356;2024-03-08T07:07:35;30.58;;;14.35;;
37051;SDS011;22964;52.272;13.356;2024-03-08T07:10:02;27.25;;;13.00;;
37051;SDS011;22964;52.272;13.356;2024-03-08T07:12:28;28.35;;;13.10;;
37051;SDS011;22964;52.272;13.356;2024-03-08T07:14:54;27.67;;;13.80;;
37051;SDS011;22964;52.272;13.356;2024-03-08T07:17:19;26.63;;;13.70;;
37051;SDS011;22964;52.272;13.356;2024-03-08T07:19:45;27.20;;;13.52;;
37051;SDS011;22964;52.272;13.356;2024-03-08T07:22:11;28.48;;;13.35;;
37051;SDS011;22964;52.272;13.356;2024-03-08T07:24:37;23.25;;;12.15;;
37051;SDS011;22964;52.272;13.356;2024-03-08T07:27:35;26.70;;;12.55;;
37051;SDS011;22964;52.272;13.356;2024-03-08T07:30:02;26.42;;;12.57;;
37051;SDS011;22964;52.272;13.356;2024-03-08T07:32:28;27.17;;;12.95;;
37051;SDS011;22964;52.272;13.356;2024-03-08T07:34:55;24.30;;;12.55;;
37051;SDS011;22964;52.272;13.356;2024-03-08T07:37:21;25.25;;;12.68;;
37051;SDS011;22964;52.272;13.356;2024-03-08T07:39:48;31.50;;;14.10;;
37051;SDS011;22964;52.272;13.356;2024-03-08T07:42:14;28.88;;;13.95;;
37051;SDS011;22964;52.272;13.356;2024-03-08T07:44:40;27.83;;;13.63;;
37051;SDS011;22964;52.272;13.356;2024-03-08T07:47:06;26.58;;;13.98;;
37051;SDS011;22964;52.272;13.356;2024-03-08T07:49:34;26.20;;;13.70;;
37051;SDS011;22964;52.272;13.356;2024-03-08T07:52:00;26.00;;;13.43;;
37051;SDS011;22964;52.272;13.356;2024-03-08T07:54:26;29.60;;;13.88;;
37051;SDS011;22964;52.272;13.356;2024-03-08T07:56:52;32.72;;;13.73;;
37051;SDS011;22964;52.272;13.356;2024-03-08T07:59:18;27.85;;;13.27;;
37051;SDS011;22964;52.272;13.356;2024-03-08T08:01:44;26.20;;;13.45;;
37051;SDS011;22964;52.272;13.356;2024-03-08T08:04:12;25.42;;;12.75;;
37051;SDS011;22964;52.272;13.356;2024-03-08T08:06:39;27.70;;;13.88;;
37051;SDS011;22964;52.272;13.356;2024-03-08T08:09:08;27.58;;;14.30;;
37051;SDS011;22964;52.272;13.356;2024-03-08T08:11:43;27.10;;;13.77;;
37051;SDS011;22964;52.272;13.356;2024-03-08T08:14:09;24.67;;;12.98;;
37051;SDS011;22964;52.272;13.356;2024-03-08T08:16:35;24.95;;;13.35;;
37051;SDS011;22964;52.272;13.356;2024-03-08T08:19:03;25.80;;;13.70;;
37051;SDS011;22964;52.272;13.356;2024-03-08T08:21:35;29.10;;;13.43;;
37051;SDS011;22964;52.272;13.356;2024-03-08T08:24:02;28.42;;;14.65;;
37051;SDS011;22964;52.272;13.356;2024-03-08T08:26:29;28.75;;;13.77;;
37051;SDS011;22964;52.272;13.356;2024-03-08T08:28:54;25.55;;;12.70;;
37051;SDS011;22964;52.272;13.356;2024-03-08T08:31:20;28.55;;;14.60;;
37051;SDS011;22964;52.272;13.356;2024-03-08T08:33:46;27.40;;;14.30;;
37051;SDS011;22964;52.272;13.356;2024-03-08T08:36:13;24.88;;;13.73;;
37051;SDS011;22964;52.272;13.356;2024-03-08T08:38:39;28.88;;;14.57;;
37051;SDS011;22964;52.272;13.356;2024-03-08T08:41:05;26.90;;;13.88;;
37051;SDS011;22964;52.272;13.356;2024-03-08T08:43:31;29.27;;;14.52;;
37051;SDS011;22964;52.272;13.356;2024-03-08T08:45:58;27.55;;;14.55;;
37051;SDS011;22964;52.272;13.356;2024-03-08T08:48:24;26.48;;;13.13;;
37051;SDS011;22964;52.272;13.356;2024-03-08T08:50:50;23.63;;;13.05;;
37051;SDS011;22964;52.272;13.356;2024-03-08T08:53:17;25.10;;;13.75;;
37051;SDS011;22964;52.272;13.356;2024-03-08T08:55:43;27.33;;;14.85;;
37051;SDS011;22964;52.272;13.356;2024-03-08T08:58:11;25.13;;;14.20;;
37051;SDS011;22964;52.272;13.356;2024-03-08T09:00:37;28.98;;;15.38;;
37051;SDS011;22964;52.272;13.356;2024-03-08T09:03:02;26.98;;;13.40;;
37051;SDS011;22964;52.272;13.356;2024-03-08T09:05:28;24.77;;;13.48;;
37051;SDS011;22964;52.272;13.356;2024-03-08T09:07:54;24.08;;;13.68;;
37051;SDS011;22964;52.272;13.356;2024-03-08T09:10:20;23.45;;;12.75;;
37051;SDS011;22964;52.272;13.356;2024-03-08T09:12:46;23.02;;;12.82;;
37051;SDS011;22964;52.272;13.356;2024-03-08T09:15:12;24.42;;;12.88;;
37051;SDS011;22964;52.272;13.356;2024-03-08T09:17:38;24.80;;;13.90;;
37051;SDS011;22964;52.272;13.356;2024-03-08T09:20:05;23.70;;;12.32;;
37051;SDS011;22964;52.272;13.356;2024-03-08T09:22:32;25.08;;;13.77;;
37051;SDS011;22964;52.272;13.356;2024-03-08T09:24:58;27.42;;;13.73;;
37051;SDS011;22964;52.272;13.356;2024-03-08T09:27:23;24.88;;;13.30;;
37051;SDS011;22964;52.272;13.356;2024-03-08T09:29:49;24.05;;;12.88;;
37051;SDS011;22964;52.272;13.356;2024-03-08T09:32:15;22.98;;;12.75;;
37051;SDS011;22964;52.272;13.356;2024-03-08T09:34:41;22.15;;;12.52;;
37051;SDS011;22964;52.272;13.356;2024-03-08T09:37:07;22.35;;;13.23;;
37051;SDS011;22964;52.272;13.356;2024-03-08T09:39:34;23.83;;;13.75;;
37051;SDS011;22964;52.272;13.356;2024-03-08T09:42:00;23.55;;;13.35;;
37051;SDS011;22964;52.272;13.356;2024-03-08T09:44:26;22.70;;;12.40;;
37051;SDS011;22964;52.272;13.356;2024-03-08T09:46:54;22.52;;;13.13;;
37051;SDS011;22964;52.272;13.356;2024-03-08T09:49:20;21.73;;;11.65;;
37051;SDS011;22964;52.272;13.356;2024-03-08T09:51:46;23.65;;;11.60;;
37051;SDS011;22964;52.272;13.356;2024-03-08T09:54:13;24.58;;;12.75;;
37051;SDS011;22964;52.272;13.356;2024-03-08T09:56:41;24.73;;;13.32;;
37051;SDS011;22964;52.272;13.356;2024-03-08T09:59:09;21.88;;;11.68;;
37051;SDS011;22964;52.272;13.356;2024-03-08T10:01:50;23.83;;;12.13;;
37051;SDS011;22964;52.272;13.356;2024-03-08T10:04:24;19.70;;;10.77;;
37051;SDS011;22964;52.272;13.356;2024-03-08T10:06:50;22.08;;;11.98;;
37051;SDS011;22964;52.272;13.356;2024-03-08T10:09:17;18.48;;;10.52;;
37051;SDS011;22964;52.272;13.356;2024-03-08T10:11:43;20.92;;;11.20;;
37051;SDS011;22964;52.272;13.356;2024-03-08T10:14:10;20.77;;;10.60;;
37051;SDS011;22964;52.272;13.356;2024-03-08T10:16:37;21.23;;;11.23;;
37051;SDS011;22964;52.272;13.356;2024-03-08T10:19:04;21.08;;;11.07;;
37051;SDS011;22964;52.272;13.356;2024-03-08T10:21:31;17.73;;;9.55;;
37051;SDS011;22964;52.272;13.356;2024-03-08T10:24:02;15.85;;;8.95;;
37051;SDS011;22964;52.272;13.356;2024-03-08T10:26:28;15.48;;;9.05;;
37051;SDS011;22964;52.272;13.356;2024-03-08T10:28:54;16.88;;;8.80;;
37051;SDS011;22964;52.272;13.356;2024-03-08T10:31:19;16.40;;;8.95;;
37051;SDS011;22964;52.272;13.356;2024-03-08T10:33:46;14.57;;;8.38;;
37051;SDS011;22964;52.272;13.356;2024-03-08T10:36:12;15.93;;;8.57;;
37051;SDS011;22964;52.272;13.356;2024-03-08T10:38:39;15.18;;;8.77;;
37051;SDS011;22964;52.272;13.356;2024-03-08T10:41:07;16.17;;;9.13;;
37051;SDS011;22964;52.272;13.356;2024-03-08T10:48:58;16.27;;;8.35;;
37051;SDS011;22964;52.272;13.356;2024-03-08T10:51:28;15.70;;;8.57;;
37051;SDS011;22964;52.272;13.356;2024-03-08T10:53:56;14.98;;;8.68;;
37051;SDS011;22964;52.272;13.356;2024-03-08T10:56:24;19.00;;;8.82;;
37051;SDS011;22964;52.272;13.356;2024-03-08T10:58:53;18.08;;;10.00;;
37051;SDS011;22964;52.272;13.356;2024-03-08T11:01:20;14.90;;;8.93;;
37051;SDS011;22964;52.272;13.356;2024-03-08T11:03:47;17.25;;;10.15;;
37051;SDS011;22964;52.272;13.356;2024-03-08T11:09:31;18.20;;;9.57;;
37051;SDS011;22964;52.272;13.356;2024-03-08T11:14:50;18.13;;;9.57;;
37051;SDS011;22964;52.272;13.356;2024-03-08T11:17:22;17.25;;;9.38;;
37051;SDS011;22964;52.272;13.356;2024-03-08T11:19:52;18.75;;;10.20;;
37051;SDS011;22964;52.272;13.356;2024-03-08T11:22:31;16.65;;;9.10;;
37051;SDS011;22964;52.272;13.356;2024-03-08T11:25:01;16.48;;;8.85;;
37051;SDS011;22964;52.272;13.356;2024-03-08T11:27:33;16.02;;;9.25;;
37051;SDS011;22964;52.272;13.356;2024-03-08T11:30:00;16.98;;;9.55;;
37051;SDS011;22964;52.272;13.356;2024-03-08T11:32:37;15.82;;;9.15;;
37051;SDS011;22964;52.272;13.356;2024-03-08T11:35:07;16.80;;;9.20;;
37051;SDS011;22964;52.272;13.356;2024-03-08T11:37:46;17.13;;;9.80;;
37051;SDS011;22964;52.272;13.356;2024-03-08T11:40:13;16.88;;;9.48;;
37051;SDS011;22964;52.272;13.356;2024-03-08T11:42:43;16.45;;;9.30;;
37051;SDS011;22964;52.272;13.356;2024-03-08T11:47:43;14.50;;;9.05;;
37051;SDS011;22964;52.272;13.356;2024-03-08T11:50:11;18.25;;;9.40;;
37051;SDS011;22964;52.272;13.356;2024-03-08T11:52:38;16.27;;;8.93;;
37051;SDS011;22964;52.272;13.356;2024-03-08T11:55:04;16.52;;;8.63;;
37051;SDS011;22964;52.272;13.356;2024-03-08T11:57:31;14.98;;;8.27;;
37051;SDS011;22964;52.272;13.356;2024-03-08T11:59:57;17.00;;;9.40;;
37051;SDS011;22964;52.272;13.356;2024-03-08T12:02:33;16.42;;;9.52;;
37051;SDS011;22964;52.272;13.356;2024-03-08T12:05:08;15.38;;;8.75;;
37051;SDS011;22964;52.272;13.356;2024-03-08T12:07:41;16.45;;;8.20;;
37051;SDS011;22964;52.272;13.356;2024-03-08T12:10:15;14.38;;;8.75;;
37051;SDS011;22964;52.272;13.356;2024-03-08T12:12:48;16.92;;;9.02;;
37051;SDS011;22964;52.272;13.356;2024-03-08T12:15:16;15.02;;;8.45;;
37051;SDS011;22964;52.272;13.356;2024-03-08T12:17:43;13.60;;;8.18;;
37051;SDS011;22964;52.272;13.356;2024-03-08T12:20:28;15.82;;;8.48;;
37051;SDS011;22964;52.272;13.356;2024-03-08T12:22:57;14.57;;;8.25;;
37051;SDS011;22964;52.272;13.356;2024-03-08T12:25:30;13.55;;;8.10;;
37051;SDS011;22964;52.272;13.356;2024-03-08T12:28:06;11.20;;;6.80;;
37051;SDS011;22964;52.272;13.356;2024-03-08T12:30:35;13.30;;;7.30;;
37051;SDS011;22964;52.272;13.356;2024-03-08T12:36:01;15.98;;;7.55;;
37051;SDS011;22964;52.272;13.356;2024-03-08T12:38:30;12.85;;;6.97;;
37051;SDS011;22964;52.272;13.356;2024-03-08T12:41:00;13.25;;;7.65;;
37051;SDS011;22964;52.272;13.356;2024-03-08T12:43:26;12.82;;;7.63;;
37051;SDS011;22964;52.272;13.356;2024-03-08T12:45:55;14.13;;;7.18;;
37051;SDS011;22964;52.272;13.356;2024-03-08T12:48:20;13.77;;;7.82;;
37051;SDS011;22964;52.272;13.356;2024-03-08T12:50:46;13.80;;;8.07;;
37051;SDS011;22964;52.272;13.356;2024-03-08T12:53:13;13.90;;;7.38;;
37051;SDS011;22964;52.272;13.356;2024-03-08T12:55:39;13.80;;;7.45;;
37051;SDS011;22964;52.272;13.356;2024-03-08T12:58:05;12.93;;;7.38;;
37051;SDS011;22964;52.272;13.356;2024-03-08T13:00:35;13.25;;;7.53;;
37051;SDS011;22964;52.272;13.356;2024-03-08T13:03:08;13.52;;;7.65;;
37051;SDS011;22964;52.272;13.356;2024-03-08T13:05:36;14.70;;;7.53;;
37051;SDS011;22964;52.272;13.356;2024-03-08T13:08:05;17.10;;;7.57;;
37051;SDS011;22964;52.272;13.356;2024-03-08T13:10:37;11.43;;;7.00;;
37051;SDS011;22964;52.272;13.356;2024-03-08T13:13:04;11.18;;;6.30;;
37051;SDS011;22964;52.272;13.356;2024-03-08T13:15:30;11.13;;;7.32;;
37051;SDS011;22964;52.272;13.356;2024-03-08T13:17:55;13.82;;;7.65;;
37051;SDS011;22964;52.272;13.356;2024-03-08T13:20:25;14.80;;;7.88;;
37051;SDS011;22964;52.272;13.356;2024-03-08T13:22:53;13.82;;;8.02;;
37051;SDS011;22964;52.272;13.356;2024-03-08T13:25:19;13.13;;;7.32;;
37051;SDS011;22964;52.272;13.356;2024-03-08T13:27:45;12.77;;;7.57;;
37051;SDS011;22964;52.272;13.356;2024-03-08T13:30:12;13.95;;;7.60;;
37051;SDS011;22964;52.272;13.356;2024-03-08T13:32:39;11.60;;;7.18;;
37051;SDS011;22964;52.272;13.356;2024-03-08T13:35:08;11.60;;;6.93;;
37051;SDS011;22964;52.272;13.356;2024-03-08T13:37:41;12.00;;;6.80;;
37051;SDS011;22964;52.272;13.356;2024-03-08T13:40:07;10.55;;;6.57;;
37051;SDS011;22964;52.272;13.356;2024-03-08T13:42:42;10.20;;;6.43;;
37051;SDS011;22964;52.272;13.356;2024-03-08T13:45:11;10.40;;;6.63;;
37051;SDS011;22964;52.272;13.356;2024-03-08T13:47:37;10.55;;;6.40;;
37051;SDS011;22964;52.272;13.356;2024-03-08T13:50:05;13.15;;;7.07;;
37051;SDS011;22964;52.272;13.356;2024-03-08T13:52:33;9.57;;;5.80;;
37051;SDS011;22964;52.272;13.356;2024-03-08T13:55:02;10.57;;;6.28;;
37051;SDS011;22964;52.272;13.356;2024-03-08T13:57:28;11.95;;;6.57;;
37051;SDS011;22964;52.272;13.356;2024-03-08T13:59:54;9.80;;;6.05;;
37051;SDS011;22964;52.272;13.356;2024-03-08T14:02:20;12.30;;;6.10;;
37051;SDS011;22964;52.272;13.356;2024-03-08T14:04:47;10.52;;;6.38;;
37051;SDS011;22964;52.272;13.356;2024-03-08T14:07:14;9.95;;;6.03;;
37051;SDS011;22964;52.272;13.356;2024-03-08T14:09:41;10.48;;;5.80;;
37051;SDS011;22964;52.272;13.356;2024-03-08T14:12:08;10.10;;;5.88;;
37051;SDS011;22964;52.272;13.356;2024-03-08T14:14:34;10.20;;;6.03;;
37051;SDS011;22964;52.272;13.356;2024-03-08T14:17:01;9.23;;;5.78;;
37051;SDS011;22964;52.272;13.356;2024-03-08T14:19:27;11.45;;;6.10;;
37051;SDS011;22964;52.272;13.356;2024-03-08T14:21:53;10.32;;;6.20;;
37051;SDS011;22964;52.272;13.356;2024-03-08T14:24:19;8.90;;;5.65;;
37051;SDS011;22964;52.272;13.356;2024-03-08T14:26:45;10.80;;;6.00;;
37051;SDS011;22964;52.272;13.356;2024-03-08T14:29:14;8.85;;;5.95;;
37051;SDS011;22964;52.272;13.356;2024-03-08T14:31:40;11.65;;;6.28;;
37051;SDS011;22964;52.272;13.356;2024-03-08T14:34:08;11.57;;;6.57;;